Portada
METAR-TAF:

METAR-TAF

Aeroports :

Fuzhou, Xina

latitud: 26-05N, longitud: 119-17E, altitud: 85 m

Observació

L'informe es va fer fa 38 minuts, a les 06:00 UTC
Vent 8 kt del Est
Temperatura 22°C
Humitat 57%
Pressió 1017 hPa
Visibilitat 10 km o més
Escasses núvols a una alçada de 2000 ft

METAR: ZSFZ 280600Z 09004MPS 9999 FEW020 22/13 Q1017 NOSIG

Hora: 14:38 (06:38 UTC)

Pronòstic

L'informe es va fer fa 3 hores i 33 minuts, a les 03:05 UTC
Pronòstic vàlid del 28 a les 06 UTC al 29 a les 06 UTC
Vent 6 kt del Nord-Oest
Visibilitat: 7000 m
Cel ennuvolat a una alçada de 1500 ft
Evolucionant progressivament
l' 28 a les 15 UTC al 28 a les 16 UTC
Vent 10 kt del Sud

TAF: ZSFZ 280305Z 2806/2906 31003MPS 7000 BKN015 TX21/2906Z TN15/2822Z BECMG 2815/2816 18005MPS

Observacions i pronòstics meteorològics de més de 4000 aeroports (METAR i TAF).

Les estacions disponibles són els punts grocs i vermells al mapa.

Posi el ratolí al punt desitjat per veure el nom de l'estació.

Feu clic per veure les observacions i els pronòstics meteorològics.

Per canviar el mapa: feu clic els botons verds amb una creu de color negre per apropar; al botó verd amb un guió per allunyar la imatge; o en les fletxes verdes per a mapes adjacents.


METAR-TAF: